Time;durP1;ratioP1;P1;durP2;ratioP2;P2;SDS_P1;SDS_P2;PMS_P1;PMS_P2;Temp;Humidity;BMP_temperature;BMP_pressure;BME280_temperature;BME280_humidity;BME280_pressure;Samples;Min_cycle;Max_cycle;Signal;HPM_P1;HPM_P2
2023/10/07 00:02:33;;;;;;;8.30;4.60;;;;;;;14.06;85.95;100127.98;109026;277;39389;-71
2023/10/07 00:05:16;;;;;;;7.90;4.00;;;;;;;14.06;85.82;100130.61;109042;277;38683;-71
2023/10/07 00:08:00;;;;;;;7.10;4.50;;;;;;;14.08;85.80;100135.92;108965;277;38173;-72
2023/10/07 00:10:37;;;;;;;6.00;3.80;;;;;;;14.09;85.72;100130.27;108971;277;38425;-71
2023/10/07 00:13:13;;;;;;;6.10;4.10;;;;;;;14.12;85.51;100126.77;108942;277;39638;-70
2023/10/07 00:15:50;;;;;;;5.30;4.10;;;;;;;14.14;85.33;100119.81;108984;277;38176;-70
2023/10/07 00:18:30;;;;;;;6.50;4.20;;;;;;;14.15;85.27;100114.48;109190;276;39634;-70
2023/10/07 00:21:07;;;;;;;8.00;4.20;;;;;;;14.17;85.20;100102.62;109232;276;38215;-70
2023/10/07 00:23:42;;;;;;;7.00;4.00;;;;;;;14.17;84.85;100098.94;109272;276;38527;-70
2023/10/07 00:26:17;;;;;;;6.20;4.20;;;;;;;14.18;84.63;100095.87;108982;276;39758;-70
2023/10/07 00:29:00;;;;;;;6.40;4.10;;;;;;;14.21;84.64;100092.56;109237;276;38304;-70
2023/10/07 00:31:40;;;;;;;5.60;3.80;;;;;;;14.23;84.57;100082.14;109204;276;38146;-71
2023/10/07 00:34:15;;;;;;;7.40;3.90;;;;;;;14.24;84.25;100078.59;109274;276;38552;-71
2023/10/07 00:36:56;;;;;;;6.20;4.10;;;;;;;14.24;84.16;100075.59;109261;276;39061;-70
2023/10/07 00:39:37;;;;;;;5.40;3.70;;;;;;;14.25;84.03;100073.44;109256;276;38773;-70
2023/10/07 00:42:11;;;;;;;6.80;3.70;;;;;;;14.27;83.73;100067.00;109292;276;38765;-70
2023/10/07 00:44:47;;;;;;;6.30;3.90;;;;;;;14.29;83.56;100058.42;109229;276;38523;-70
2023/10/07 00:47:26;;;;;;;5.20;3.80;;;;;;;14.30;83.45;100049.58;109315;276;38613;-70
2023/10/07 00:50:00;;;;;;;6.10;3.50;;;;;;;14.31;83.14;100047.45;109301;276;38948;-70
2023/10/07 00:52:41;;;;;;;6.10;3.70;;;;;;;14.33;83.17;100043.10;109073;276;39613;-70
2023/10/07 00:55:22;;;;;;;6.40;4.00;;;;;;;14.37;82.88;100041.79;109381;276;39645;-71
2023/10/07 00:58:15;;;;;;;7.00;3.80;;;;;;;14.40;82.73;100037.10;109354;276;38234;-71
2023/10/07 01:00:55;;;;;;;5.80;4.00;;;;;;;14.42;82.58;100035.02;109267;276;38742;-71
2023/10/07 01:03:47;;;;;;;5.20;3.70;;;;;;;14.42;82.43;100043.95;109124;276;39295;-70
2023/10/07 01:06:27;;;;;;;5.50;3.00;;;;;;;14.42;82.70;100042.36;109141;276;38377;-71
2023/10/07 01:09:22;;;;;;;6.50;3.90;;;;;;;14.43;82.74;100047.58;108949;276;39567;-70
2023/10/07 01:11:59;;;;;;;7.10;4.20;;;;;;;14.40;83.14;100045.16;108941;276;38142;-70
2023/10/07 01:14:35;;;;;;;9.60;4.40;;;;;;;14.39;83.60;100039.96;109107;276;38542;-71
2023/10/07 01:17:14;;;;;;;6.90;3.50;;;;;;;14.37;83.84;100038.86;109150;276;38843;-70
2023/10/07 01:19:53;;;;;;;7.20;3.70;;;;;;;14.34;84.55;100029.17;109104;276;38405;-71
2023/10/07 01:22:35;;;;;;;6.60;4.30;;;;;;;14.32;84.55;100034.59;109104;276;39621;-71
2023/10/07 01:25:17;;;;;;;7.40;4.30;;;;;;;14.30;84.83;100031.16;109125;276;38951;-70
2023/10/07 01:27:53;;;;;;;5.00;3.40;;;;;;;14.28;85.25;100022.21;109187;276;38158;-70
2023/10/07 01:30:29;;;;;;;6.50;3.60;;;;;;;14.21;85.53;100023.45;109301;276;39341;-71
2023/10/07 01:33:22;;;;;;;6.60;3.50;;;;;;;14.17;85.86;100024.91;109253;276;38736;-70
2023/10/07 01:36:07;;;;;;;6.70;3.90;;;;;;;14.13;86.27;100024.11;109287;276;38415;-70
2023/10/07 01:38:44;;;;;;;5.40;3.40;;;;;;;14.09;86.45;100018.39;109372;276;38455;-70
2023/10/07 01:41:27;;;;;;;6.60;3.90;;;;;;;14.07;86.72;100010.56;109257;276;38459;-71
2023/10/07 01:44:10;;;;;;;5.90;3.70;;;;;;;14.06;86.98;100000.98;109359;276;39618;-70
2023/10/07 01:46:55;;;;;;;5.50;3.90;;;;;;;14.06;87.06;99992.95;109311;276;39476;-71
2023/10/07 01:49:31;;;;;;;6.80;3.70;;;;;;;14.05;87.11;99987.72;109200;276;175186;-70
2023/10/07 01:52:07;;;;;;;6.00;3.80;;;;;;;14.04;87.10;99983.61;108516;276;897083;-71
2023/10/07 01:54:45;;;;;;;6.70;4.00;;;;;;;14.03;87.14;99978.58;108969;276;38485;-71
2023/10/07 01:57:19;;;;;;;7.40;4.10;;;;;;;14.00;87.31;99969.95;109209;276;39356;-71
2023/10/07 01:59:57;;;;;;;7.90;3.70;;;;;;;14.02;87.42;99954.41;109228;276;38150;-71
2023/10/07 02:02:32;;;;;;;7.80;4.10;;;;;;;14.04;87.66;99946.25;108960;276;40910;-71
2023/10/07 02:05:12;;;;;;;7.20;4.60;;;;;;;14.02;87.40;99944.79;109222;276;38764;-71
2023/10/07 02:07:48;;;;;;;5.30;3.90;;;;;;;13.98;87.47;99943.21;109081;276;172477;-71
2023/10/07 02:10:30;;;;;;;5.90;3.80;;;;;;;13.98;87.52;99943.94;109290;276;38162;-71
2023/10/07 02:13:05;;;;;;;6.80;3.90;;;;;;;13.97;87.47;99945.95;109266;276;38317;-71
2023/10/07 02:15:45;;;;;;;6.70;3.90;;;;;;;13.97;87.55;99942.10;109285;276;38751;-71
2023/10/07 02:18:21;;;;;;;6.00;3.90;;;;;;;13.93;87.45;99943.17;109274;276;39769;-70
2023/10/07 02:21:06;;;;;;;7.20;3.80;;;;;;;13.91;87.56;99946.28;109284;276;38149;-70
2023/10/07 02:23:43;;;;;;;9.50;4.00;;;;;;;13.90;87.68;99941.10;109347;276;38644;-72
2023/10/07 02:26:21;;;;;;;6.00;3.70;;;;;;;13.92;87.74;99935.17;109348;276;38115;-70
2023/10/07 02:29:04;;;;;;;;;;;;;;;13.95;87.57;99933.94;109329;276;38712;-70
2023/10/07 02:31:43;;;;;;;7.00;4.20;;;;;;;13.93;87.59;99933.16;109381;276;38798;-71
2023/10/07 02:34:28;;;;;;;6.80;4.60;;;;;;;13.93;87.47;99922.86;109332;276;40082;-71
2023/10/07 02:37:13;;;;;;;6.60;4.00;;;;;;;13.89;87.42;99918.67;108957;276;39525;-71
2023/10/07 02:39:50;;;;;;;6.40;3.60;;;;;;;13.88;87.15;99918.54;109150;276;176027;-71
2023/10/07 02:42:24;;;;;;;7.40;3.80;;;;;;;13.88;86.90;99918.75;109271;276;38159;-71
2023/10/07 02:45:12;;;;;;;5.90;3.70;;;;;;;13.88;86.88;99914.70;109248;276;38408;-70
2023/10/07 02:47:47;;;;;;;;;;;;;;;13.88;86.69;99903.13;109296;276;38981;-70
2023/10/07 02:50:26;;;;;;;6.40;3.80;;;;;;;13.84;86.90;99900.73;109214;276;38899;-70
2023/10/07 02:53:10;;;;;;;5.60;3.80;;;;;;;13.85;86.67;99898.96;109250;276;39239;-71
2023/10/07 02:55:54;;;;;;;6.70;3.80;;;;;;;13.85;86.59;99896.67;109247;276;39877;-70
2023/10/07 02:58:36;;;;;;;6.30;3.70;;;;;;;13.85;86.44;99889.10;108731;276;706051;-71
2023/10/07 03:01:16;;;;;;;8.00;3.80;;;;;;;13.87;86.36;99883.20;109252;276;39337;-70
2023/10/07 03:03:51;;;;;;;9.20;3.60;;;;;;;13.86;86.20;99883.77;109142;276;175213;-70
2023/10/07 03:06:28;;;;;;;6.30;3.80;;;;;;;13.86;86.05;99878.03;109274;276;38247;-71
2023/10/07 03:09:18;;;;;;;5.90;3.30;;;;;;;13.85;85.86;99880.17;109305;276;38790;-71
2023/10/07 03:11:54;;;;;;;7.40;3.60;;;;;;;13.84;85.68;99879.16;109263;276;39159;-72
2023/10/07 03:14:36;;;;;;;7.30;3.80;;;;;;;13.84;85.61;99873.58;109327;276;38239;-70
2023/10/07 03:17:18;;;;;;;6.90;4.00;;;;;;;13.84;85.51;99872.00;109041;276;40205;-70
2023/10/07 03:19:56;;;;;;;5.90;3.90;;;;;;;13.84;85.29;99862.52;109182;276;38431;-71
2023/10/07 03:22:43;;;;;;;7.10;4.00;;;;;;;13.81;85.04;99846.58;109225;276;39308;-71
2023/10/07 03:25:22;;;;;;;7.10;3.40;;;;;;;13.82;84.96;99847.95;109223;276;38239;-71
2023/10/07 03:27:56;;;;;;;6.80;3.80;;;;;;;13.83;84.73;99850.31;109225;276;38687;-69
2023/10/07 03:30:36;;;;;;;7.40;3.80;;;;;;;13.84;84.79;99845.37;109244;276;38268;-70
2023/10/07 03:33:11;;;;;;;6.60;3.80;;;;;;;13.85;84.69;99845.11;109218;276;38394;-71
2023/10/07 03:36:08;;;;;;;5.70;3.90;;;;;;;13.85;84.51;99831.79;109183;276;38475;-71
2023/10/07 03:38:50;;;;;;;5.20;3.00;;;;;;;13.85;84.34;99826.70;109210;276;38345;-71
2023/10/07 03:41:33;;;;;;;4.10;3.30;;;;;;;13.87;84.23;99833.95;109228;276;38274;-71
2023/10/07 03:44:13;;;;;;;8.00;3.40;;;;;;;13.89;83.99;99825.77;109205;276;38533;-71
2023/10/07 03:47:02;;;;;;;5.50;3.50;;;;;;;13.91;83.94;99829.70;109205;276;39536;-72
2023/10/07 03:49:42;;;;;;;5.80;3.30;;;;;;;13.92;83.51;99826.64;109198;276;38737;-70
2023/10/07 03:52:20;;;;;;;5.30;3.30;;;;;;;13.94;83.44;99827.04;109328;276;38398;-70
2023/10/07 03:54:56;;;;;;;6.00;3.20;;;;;;;13.97;83.28;99819.86;109139;276;38493;-71
2023/10/07 03:57:34;;;;;;;4.90;3.50;;;;;;;13.99;83.41;99820.94;109019;276;41119;-71
2023/10/07 04:00:13;;;;;;;5.80;3.80;;;;;;;14.00;83.70;99816.89;109015;276;41370;-71
2023/10/07 04:02:50;;;;;;;4.70;3.60;;;;;;;14.00;83.89;99811.80;109246;276;39411;-70
2023/10/07 04:05:49;;;;;;;6.10;3.00;;;;;;;14.00;84.14;99808.09;108935;276;38191;-71
2023/10/07 04:08:23;;;;;;;5.30;3.70;;;;;;;14.01;84.13;99807.50;109170;276;39996;-72
2023/10/07 04:11:01;;;;;;;5.60;3.20;;;;;;;14.03;84.24;99809.31;109198;276;38232;-73
2023/10/07 04:13:35;;;;;;;6.70;3.30;;;;;;;14.03;84.08;99807.40;109198;276;38327;-70
2023/10/07 04:16:22;;;;;;;6.20;3.50;;;;;;;14.02;84.19;99800.05;109258;276;38786;-71
2023/10/07 04:19:06;;;;;;;6.20;3.50;;;;;;;14.02;84.06;99802.50;109161;276;40060;-72
2023/10/07 04:21:40;;;;;;;6.00;3.30;;;;;;;14.03;84.10;99797.92;109195;276;38924;-72
2023/10/07 04:24:15;;;;;;;6.90;3.20;;;;;;;14.04;84.23;99801.35;109209;276;38668;-73
2023/10/07 04:26:54;;;;;;;5.60;3.30;;;;;;;14.08;84.14;99790.59;109009;276;39479;-71
2023/10/07 04:29:31;;;;;;;7.40;3.30;;;;;;;14.11;84.01;99790.41;109262;276;38457;-71
2023/10/07 04:32:19;;;;;;;6.60;3.60;;;;;;;14.11;84.07;99790.57;109276;276;39444;-71
2023/10/07 04:35:16;;;;;;;5.70;3.30;;;;;;;14.12;84.31;99791.58;109324;276;38150;-71
2023/10/07 04:37:59;;;;;;;7.70;3.60;;;;;;;14.11;84.17;99790.95;109261;276;38579;-71
2023/10/07 04:43:47;;;;;;;4.60;3.50;;;;;;;14.14;84.53;99795.34;109250;276;38195;-71
2023/10/07 04:46:24;;;;;;;7.10;3.40;;;;;;;14.14;84.88;99791.59;109265;276;38130;-71
2023/10/07 04:49:00;;;;;;;5.00;3.30;;;;;;;14.14;85.26;99789.15;109230;276;38173;-72
2023/10/07 04:51:48;;;;;;;5.60;2.70;;;;;;;14.14;85.54;99787.56;109272;276;38417;-70
2023/10/07 04:54:22;;;;;;;5.40;3.10;;;;;;;14.14;85.78;99788.10;109264;276;38497;-71
2023/10/07 04:57:00;;;;;;;8.20;2.80;;;;;;;14.13;86.05;99783.24;109220;276;38388;-70
2023/10/07 04:59:34;;;;;;;5.70;3.30;;;;;;;14.13;86.45;99783.09;109265;276;38330;-71
2023/10/07 05:02:10;;;;;;;6.00;3.20;;;;;;;14.13;86.58;99778.89;109206;276;38344;-72
2023/10/07 05:04:50;;;;;;;5.40;2.80;;;;;;;14.13;86.82;99778.86;109187;276;39752;-73
2023/10/07 05:07:26;;;;;;;3.90;2.70;;;;;;;14.12;87.18;99779.13;109124;276;38169;-71
2023/10/07 05:10:07;;;;;;;5.40;2.90;;;;;;;14.13;87.43;99779.39;109135;276;39429;-71
2023/10/07 05:12:46;;;;;;;6.40;3.30;;;;;;;14.13;87.73;99779.89;109172;276;38139;-70
2023/10/07 05:15:31;;;;;;;7.00;3.30;;;;;;;14.14;87.93;99772.67;109106;276;38735;-71
2023/10/07 05:18:11;;;;;;;4.00;2.90;;;;;;;14.15;88.14;99768.04;109171;276;38647;-71
2023/10/07 05:20:51;;;;;;;4.80;3.40;;;;;;;14.18;88.53;99761.55;109221;276;38286;-70
2023/10/07 05:23:25;;;;;;;5.10;2.80;;;;;;;14.20;88.50;99762.99;109193;276;39481;-71
2023/10/07 05:26:08;;;;;;;7.00;3.20;;;;;;;14.22;88.62;99762.55;109171;276;38158;-71
2023/10/07 05:28:46;;;;;;;5.80;3.30;;;;;;;14.23;88.79;99765.10;109151;276;40114;-71
2023/10/07 05:31:20;;;;;;;5.20;3.30;;;;;;;14.26;88.78;99761.91;109112;276;38336;-71
2023/10/07 05:33:55;;;;;;;6.50;3.20;;;;;;;14.28;88.96;99759.33;109076;276;38724;-71
2023/10/07 05:36:30;;;;;;;4.80;3.10;;;;;;;14.30;89.06;99772.23;109095;276;38278;-72
2023/10/07 05:39:12;;;;;;;4.30;2.90;;;;;;;14.31;89.11;99780.76;109111;276;38261;-70
2023/10/07 05:41:50;;;;;;;4.90;3.10;;;;;;;14.31;89.15;99786.55;109117;276;39686;-71
2023/10/07 05:44:28;;;;;;;4.60;3.00;;;;;;;14.32;89.44;99786.27;109080;276;38333;-73
2023/10/07 05:47:05;;;;;;;4.10;2.90;;;;;;;14.34;89.59;99786.66;109126;276;38496;-71
2023/10/07 05:49:41;;;;;;;6.20;3.30;;;;;;;14.37;89.50;99798.59;109125;276;39151;-70
2023/10/07 05:52:18;;;;;;;4.70;3.10;;;;;;;14.44;89.66;99792.02;109116;276;39306;-70
2023/10/07 05:54:56;;;;;;;5.90;3.60;;;;;;;14.48;89.66;99807.23;109108;276;39050;-70
2023/10/07 05:57:34;;;;;;;4.10;2.70;;;;;;;14.51;89.49;99805.80;109165;276;38262;-71
2023/10/07 06:00:17;;;;;;;3.80;3.00;;;;;;;14.54;89.34;99792.66;109123;276;39382;-72
2023/10/07 06:02:53;;;;;;;6.20;3.00;;;;;;;14.58;89.43;99788.70;109156;276;38503;-72
2023/10/07 06:05:29;;;;;;;5.30;3.10;;;;;;;14.62;89.23;99793.16;109155;276;39621;-72
2023/10/07 06:08:04;;;;;;;4.70;3.20;;;;;;;14.66;89.16;99786.45;109141;276;39276;-72
2023/10/07 06:10:44;;;;;;;6.10;3.30;;;;;;;14.68;89.00;99793.48;109173;276;39352;-71
2023/10/07 06:13:18;;;;;;;6.50;3.00;;;;;;;14.73;89.00;99789.67;109201;276;38766;-70
2023/10/07 06:15:55;;;;;;;5.40;2.60;;;;;;;14.77;88.61;99787.16;109321;276;37925;-70
2023/10/07 06:18:34;;;;;;;3.50;2.70;;;;;;;14.82;88.72;99783.30;109275;276;39609;-70
2023/10/07 06:21:19;;;;;;;;;;;;;;;14.87;88.52;99790.54;109286;276;39296;-70
2023/10/07 06:23:55;;;;;;;5.10;3.30;;;;;;;14.88;88.65;99785.88;109257;276;38181;-70
2023/10/07 06:26:31;;;;;;;4.60;3.30;;;;;;;14.91;88.44;99785.48;109247;276;38500;-70
2023/10/07 06:29:18;;;;;;;8.10;3.30;;;;;;;14.94;88.40;99776.88;109254;276;38156;-70
2023/10/07 06:32:12;;;;;;;5.30;3.60;;;;;;;14.98;88.18;99779.29;109255;276;38357;-71
2023/10/07 06:34:48;;;;;;;5.70;3.00;;;;;;;15.01;87.95;99779.41;109268;276;39344;-70
2023/10/07 06:37:29;;;;;;;6.50;3.30;;;;;;;15.04;87.77;99785.21;109282;276;38233;-70
2023/10/07 06:40:24;;;;;;;4.70;3.10;;;;;;;15.08;87.84;99787.42;109288;276;38405;-70
2023/10/07 06:43:02;;;;;;;4.40;3.00;;;;;;;15.10;87.60;99791.96;109314;276;38586;-70
2023/10/07 06:45:39;;;;;;;5.60;3.40;;;;;;;15.14;87.47;99791.04;109335;276;39701;-71
2023/10/07 06:48:13;;;;;;;4.60;2.40;;;;;;;15.18;87.28;99789.58;109335;276;38595;-71
2023/10/07 06:50:52;;;;;;;4.90;2.70;;;;;;;15.24;87.45;99789.30;109281;276;39101;-71
2023/10/07 06:53:26;;;;;;;5.00;2.70;;;;;;;15.30;87.38;99793.63;109289;276;38345;-71
2023/10/07 06:56:02;;;;;;;5.00;2.60;;;;;;;15.35;87.23;99796.11;109222;276;38316;-70
2023/10/07 06:58:36;;;;;;;6.30;2.70;;;;;;;15.41;86.85;99794.14;109229;276;38505;-71
2023/10/07 07:01:17;;;;;;;4.00;2.80;;;;;;;15.46;86.61;99802.60;109254;276;38957;-71
2023/10/07 07:03:51;;;;;;;5.40;2.90;;;;;;;15.51;86.48;99801.41;109178;276;39556;-71
2023/10/07 07:06:34;;;;;;;5.10;2.70;;;;;;;15.52;86.31;99807.64;109230;276;39146;-71
2023/10/07 07:12:09;;;;;;;3.90;2.50;;;;;;;15.58;85.98;99781.08;108344;276;898685;-75
2023/10/07 07:14:51;;;;;;;4.70;2.90;;;;;;;15.62;85.97;99781.63;109279;276;38279;-71
2023/10/07 07:17:43;;;;;;;5.50;3.00;;;;;;;15.68;85.95;99785.34;109263;276;38824;-70
2023/10/07 07:20:33;;;;;;;4.10;2.90;;;;;;;15.72;85.91;99786.80;109223;276;38250;-70
2023/10/07 07:23:10;;;;;;;5.90;3.30;;;;;;;15.80;86.09;99777.83;109251;276;38927;-70
2023/10/07 07:26:03;;;;;;;5.10;2.80;;;;;;;15.84;85.81;99779.14;109204;269;38241;-71
2023/10/07 07:28:54;;;;;;;5.60;2.90;;;;;;;15.88;85.64;99779.58;108929;276;175052;-71
2023/10/07 07:31:34;;;;;;;5.40;3.10;;;;;;;15.92;85.23;99779.42;109222;276;38698;-71
2023/10/07 07:34:24;;;;;;;6.60;3.80;;;;;;;15.94;84.95;99785.59;109287;276;38916;-71
2023/10/07 07:37:03;;;;;;;5.30;3.10;;;;;;;15.99;85.26;99780.69;109261;276;38883;-70
2023/10/07 07:39:39;;;;;;;;;;;;;;;16.03;85.21;99786.46;109217;276;39325;-71
2023/10/07 07:42:22;;;;;;;4.50;2.60;;;;;;;16.00;85.09;99789.55;109083;276;39231;-71
2023/10/07 07:45:01;;;;;;;4.40;2.80;;;;;;;16.05;85.16;99783.62;108981;276;38533;-72
2023/10/07 07:47:45;;;;;;;4.50;2.90;;;;;;;16.12;84.98;99781.72;109283;276;39612;-72
2023/10/07 07:50:24;;;;;;;5.00;2.90;;;;;;;16.19;84.91;99784.59;109219;276;38166;-71
2023/10/07 07:53:06;;;;;;;4.20;2.90;;;;;;;16.24;84.80;99780.67;109235;276;39450;-71
2023/10/07 07:55:43;;;;;;;5.00;2.90;;;;;;;16.28;84.78;99771.66;109256;276;38151;-71
2023/10/07 07:58:28;;;;;;;5.40;3.60;;;;;;;16.33;84.54;99765.48;109096;276;174815;-70
2023/10/07 08:01:15;;;;;;;7.40;3.10;;;;;;;16.43;84.82;99763.67;109219;276;38716;-71
2023/10/07 08:03:52;;;;;;;4.40;2.60;;;;;;;16.68;85.27;99773.52;108951;276;39327;-71
2023/10/07 08:06:28;;;;;;;5.00;2.90;;;;;;;16.83;84.35;99769.07;109205;276;38498;-73
2023/10/07 08:09:13;;;;;;;6.70;2.80;;;;;;;16.95;83.85;99769.58;109197;276;39485;-71
2023/10/07 08:11:49;;;;;;;3.70;2.60;;;;;;;17.09;83.64;99772.29;109210;276;39939;-71
2023/10/07 08:14:32;;;;;;;5.10;2.80;;;;;;;17.25;83.10;99766.65;109265;276;39329;-73
2023/10/07 08:17:08;;;;;;;7.00;3.20;;;;;;;17.43;82.45;99769.55;109098;276;39345;-73
2023/10/07 08:19:45;;;;;;;4.60;2.70;;;;;;;17.56;81.40;99761.51;109247;276;38755;-71
2023/10/07 08:22:29;;;;;;;4.50;2.80;;;;;;;17.65;81.16;99769.06;109306;276;38495;-71
2023/10/07 08:25:08;;;;;;;5.90;2.90;;;;;;;17.71;80.37;99769.85;109319;276;38206;-71
2023/10/07 08:27:51;;;;;;;6.10;3.40;;;;;;;17.68;80.22;99766.70;109288;276;38189;-72
2023/10/07 08:30:37;;;;;;;4.70;3.10;;;;;;;17.66;79.65;99772.51;109234;276;38366;-72
2023/10/07 08:33:14;;;;;;;5.50;2.90;;;;;;;17.64;79.32;99777.95;109287;276;38151;-69
2023/10/07 08:35:55;;;;;;;4.60;3.20;;;;;;;17.65;80.02;99781.08;109220;276;38494;-71
2023/10/07 08:38:44;;;;;;;5.10;2.90;;;;;;;17.62;79.29;99778.52;108962;276;39322;-71
2023/10/07 08:41:19;;;;;;;7.40;2.80;;;;;;;17.56;79.28;99781.75;109146;276;40261;-70
2023/10/07 08:44:05;;;;;;;3.80;2.50;;;;;;;17.55;79.61;99778.33;109267;276;38176;-70
2023/10/07 08:46:48;;;;;;;5.10;2.70;;;;;;;17.61;79.74;99775.59;108933;276;38466;-72
2023/10/07 08:49:28;;;;;;;8.30;3.40;;;;;;;17.68;79.63;99781.17;109232;276;39103;-71
2023/10/07 08:52:11;;;;;;;4.00;2.70;;;;;;;17.74;79.58;99785.56;108868;276;174998;-71
2023/10/07 08:54:47;;;;;;;4.20;2.60;;;;;;;17.76;79.36;99792.05;109278;276;38851;-71
2023/10/07 08:57:26;;;;;;;5.90;2.90;;;;;;;17.76;78.92;99793.85;109283;276;39207;-72
2023/10/07 09:00:11;;;;;;;7.90;2.60;;;;;;;17.79;78.65;99803.50;109032;276;38163;-71
2023/10/07 09:02:49;;;;;;;6.50;2.70;;;;;;;17.85;78.81;99812.54;109286;276;38366;-73
2023/10/07 09:05:29;;;;;;;4.90;2.60;;;;;;;17.88;78.65;99818.13;109203;276;38743;-71
2023/10/07 09:08:15;;;;;;;7.80;2.70;;;;;;;17.88;78.43;99806.14;109138;276;39062;-72
2023/10/07 09:10:55;;;;;;;5.00;2.50;;;;;;;17.86;78.02;99813.36;109133;276;38448;-72
2023/10/07 09:13:33;;;;;;;4.30;2.40;;;;;;;17.83;77.89;99810.27;109094;276;38476;-71
2023/10/07 09:16:10;;;;;;;6.40;2.60;;;;;;;17.76;77.54;99816.03;108979;276;39163;-71
2023/10/07 09:18:55;;;;;;;4.90;3.00;;;;;;;17.73;77.75;99808.17;109099;276;38188;-72
2023/10/07 09:21:34;;;;;;;4.70;2.40;;;;;;;17.71;77.75;99812.58;108963;276;38164;-71
2023/10/07 09:24:20;;;;;;;4.30;2.40;;;;;;;17.66;77.74;99810.25;108919;276;38652;-71
2023/10/07 09:26:58;;;;;;;4.70;2.80;;;;;;;17.61;77.54;99812.73;109106;276;38492;-72
2023/10/07 09:29:36;;;;;;;5.70;2.80;;;;;;;17.57;77.67;99810.23;108983;276;38804;-72
2023/10/07 09:32:21;;;;;;;3.80;2.50;;;;;;;17.57;77.84;99816.08;109154;276;38620;-71
2023/10/07 09:35:19;;;;;;;3.80;2.20;;;;;;;17.59;77.98;99817.87;109106;276;38767;-73
2023/10/07 09:37:55;;;;;;;4.90;1.80;;;;;;;17.62;77.53;99817.09;109010;276;175021;-72
2023/10/07 09:43:26;;;;;;;2.90;1.90;;;;;;;17.66;77.11;99821.05;109111;276;38207;-71
2023/10/07 09:46:07;;;;;;;3.40;1.80;;;;;;;17.65;77.02;99826.20;108941;276;40113;-71
2023/10/07 09:48:43;;;;;;;6.60;2.40;;;;;;;17.62;76.36;99837.91;109185;276;38437;-71
2023/10/07 09:51:23;;;;;;;3.20;1.80;;;;;;;17.54;75.86;99831.08;108954;276;38523;-71
2023/10/07 09:54:16;;;;;;;5.00;2.00;;;;;;;17.48;75.86;99837.00;109245;276;38154;-71
2023/10/07 09:56:59;;;;;;;2.70;1.40;;;;;;;17.42;75.84;99847.50;109298;276;38201;-71
2023/10/07 09:59:56;;;;;;;7.70;2.30;;;;;;;17.37;76.27;99852.33;109010;276;38593;-71
2023/10/07 10:03:04;;;;;;;4.20;1.80;;;;;;;17.37;76.68;99859.59;108966;276;38156;-71
2023/10/07 10:05:56;;;;;;;4.50;2.00;;;;;;;17.46;77.32;99862.96;109252;276;38155;-73
2023/10/07 10:08:45;;;;;;;3.10;1.60;;;;;;;17.56;77.38;99861.14;109268;276;38188;-72
2023/10/07 10:11:30;;;;;;;3.60;1.70;;;;;;;17.65;77.62;99858.89;109266;276;39672;-71
2023/10/07 10:14:29;;;;;;;3.70;1.60;;;;;;;17.73;77.50;99855.48;108973;276;38712;-71
2023/10/07 10:17:11;;;;;;;3.30;1.60;;;;;;;17.78;77.46;99849.24;109238;276;38240;-71
2023/10/07 10:19:47;;;;;;;3.90;1.80;;;;;;;17.87;77.35;99855.48;108922;276;174964;-71
2023/10/07 10:22:30;;;;;;;3.50;1.70;;;;;;;17.89;77.04;99844.57;109290;276;39337;-71
2023/10/07 10:25:25;;;;;;;4.60;1.40;;;;;;;17.91;76.94;99840.14;109327;276;38165;-70
2023/10/07 10:28:08;;;;;;;2.80;1.80;;;;;;;17.95;76.41;99835.44;109296;276;39401;-71
2023/10/07 10:30:53;;;;;;;3.10;1.90;;;;;;;17.97;76.34;99834.52;109289;276;39111;-72
2023/10/07 10:33:32;;;;;;;3.30;1.80;;;;;;;18.02;76.14;99834.86;109294;276;38284;-72
2023/10/07 10:36:12;;;;;;;2.90;1.90;;;;;;;18.07;75.94;99835.39;109322;276;38951;-72
2023/10/07 10:38:48;;;;;;;3.00;1.60;;;;;;;18.08;75.20;99838.84;109224;276;38433;-72
2023/10/07 10:41:33;;;;;;;2.90;1.40;;;;;;;18.06;74.65;99837.56;109264;276;38220;-72
2023/10/07 10:44:15;;;;;;;3.70;1.70;;;;;;;18.03;74.50;99843.96;108972;276;38262;-71
2023/10/07 10:46:55;;;;;;;3.20;1.40;;;;;;;18.04;74.46;99835.76;108951;276;40744;-72
2023/10/07 10:49:35;;;;;;;3.10;1.40;;;;;;;18.03;73.97;99838.98;109203;276;38242;-71
2023/10/07 10:52:08;;;;;;;;;;;;;;;18.03;73.71;99843.80;109286;276;38342;-73
2023/10/07 10:54:45;;;;;;;1.80;1.20;;;;;;;18.01;74.23;99841.48;109178;276;38125;-71
2023/10/07 10:57:25;;;;;;;2.50;1.40;;;;;;;18.05;74.28;99841.31;106962;276;2992917;-71
2023/10/07 11:00:19;;;;;;;3.40;1.70;;;;;;;18.10;73.91;99836.20;108939;276;38492;-73
2023/10/07 11:03:03;;;;;;;4.00;1.70;;;;;;;18.13;73.79;99843.40;109308;276;38191;-72
2023/10/07 11:05:41;;;;;;;2.00;1.20;;;;;;;18.15;73.65;99841.30;109276;276;38762;-71
2023/10/07 11:08:25;;;;;;;2.20;1.20;;;;;;;18.19;73.65;99854.08;109276;276;38747;-71
2023/10/07 11:11:02;;;;;;;2.10;1.30;;;;;;;18.20;73.30;99853.24;109039;276;39599;-71
2023/10/07 11:13:41;;;;;;;3.40;1.40;;;;;;;18.19;73.08;99861.14;109033;276;38411;-73
2023/10/07 11:16:17;;;;;;;4.00;1.50;;;;;;;18.16;72.92;99857.80;109186;276;174986;-71
2023/10/07 11:19:11;;;;;;;2.70;1.50;;;;;;;18.10;72.63;99856.66;109310;276;38371;-72
2023/10/07 11:21:48;;;;;;;2.90;1.40;;;;;;;18.06;73.04;99857.52;109277;276;38216;-71
2023/10/07 11:24:34;;;;;;;4.50;1.60;;;;;;;18.05;72.92;99857.79;109216;276;38153;-71
2023/10/07 11:27:16;;;;;;;2.60;1.30;;;;;;;18.04;72.91;99858.86;109212;276;38958;-72
2023/10/07 11:30:03;;;;;;;3.20;1.50;;;;;;;18.06;72.91;99856.84;109179;276;38456;-72
2023/10/07 11:32:40;;;;;;;4.40;1.30;;;;;;;18.04;72.38;99855.40;109127;276;171981;-73
2023/10/07 11:35:27;;;;;;;2.60;1.00;;;;;;;18.04;72.92;99856.63;108960;276;38199;-71
2023/10/07 11:38:02;;;;;;;3.30;1.30;;;;;;;18.05;72.74;99849.42;109219;276;38721;-70
2023/10/07 11:40:39;;;;;;;2.40;1.00;;;;;;;18.10;72.60;99859.89;109205;276;38449;-71
2023/10/07 11:43:16;;;;;;;2.10;1.00;;;;;;;18.14;72.43;99858.01;109184;276;39205;-73
2023/10/07 11:45:53;;;;;;;2.20;1.10;;;;;;;18.16;72.51;99860.29;109238;276;39010;-71
2023/10/07 11:48:30;;;;;;;2.70;1.40;;;;;;;18.16;72.58;99862.73;109225;276;39843;-71
2023/10/07 11:51:06;;;;;;;3.30;1.40;;;;;;;18.14;72.40;99858.12;109282;276;38541;-71
2023/10/07 11:53:41;;;;;;;2.20;1.20;;;;;;;18.09;72.48;99851.11;109249;276;39613;-73
2023/10/07 11:56:17;;;;;;;3.40;1.30;;;;;;;18.03;72.31;99850.65;109266;276;38645;-71
2023/10/07 11:58:52;;;;;;;2.80;1.00;;;;;;;17.96;72.35;99849.23;109019;276;39229;-72
2023/10/07 12:01:27;;;;;;;2.80;1.40;;;;;;;17.91;72.39;99855.19;109235;276;38559;-73
2023/10/07 12:04:01;;;;;;;1.90;1.10;;;;;;;17.85;72.31;99857.58;109259;276;38184;-71
2023/10/07 12:06:36;;;;;;;2.70;1.00;;;;;;;17.78;72.36;99865.15;109220;276;38602;-71
2023/10/07 12:09:12;;;;;;;3.10;1.10;;;;;;;17.69;72.16;99870.19;109189;276;38476;-71
2023/10/07 12:11:48;;;;;;;2.80;1.10;;;;;;;17.59;72.29;99874.66;109267;276;38501;-72
2023/10/07 12:14:23;;;;;;;3.00;1.00;;;;;;;17.47;72.29;99872.86;109169;276;38770;-72
2023/10/07 12:16:58;;;;;;;1.50;0.80;;;;;;;17.40;72.58;99880.48;109199;276;38911;-71
2023/10/07 12:19:32;;;;;;;2.30;1.00;;;;;;;17.36;72.83;99884.15;109175;276;38166;-71
2023/10/07 12:22:08;;;;;;;3.40;1.40;;;;;;;17.33;73.14;99892.81;109268;276;38467;-71
2023/10/07 12:24:43;;;;;;;4.50;1.30;;;;;;;17.29;73.18;99896.64;109168;276;39409;-70
2023/10/07 12:27:18;;;;;;;3.10;1.20;;;;;;;17.26;73.37;99902.51;109197;276;38601;-70
2023/10/07 12:29:52;;;;;;;1.80;1.30;;;;;;;17.23;73.65;99896.37;109226;276;38740;-72
2023/10/07 12:32:32;;;;;;;3.30;1.30;;;;;;;17.24;73.76;99899.80;109236;276;39677;-70
2023/10/07 12:35:09;;;;;;;2.60;1.20;;;;;;;17.27;73.76;99894.61;109253;276;39357;-71
2023/10/07 12:37:46;;;;;;;3.30;1.40;;;;;;;17.34;73.73;99890.30;109249;276;38902;-71
2023/10/07 12:40:28;;;;;;;3.30;1.90;;;;;;;17.40;73.53;99896.55;109265;276;39212;-71
2023/10/07 12:43:03;;;;;;;3.40;1.60;;;;;;;17.46;73.45;99893.79;109262;276;38735;-72
2023/10/07 12:45:37;;;;;;;1.70;1.10;;;;;;;17.53;73.24;99891.64;109307;276;38273;-72